Time;durP1;ratioP1;P1;durP2;ratioP2;P2;SDS_P1;SDS_P2;PMS_P1;PMS_P2;Temp;Humidity;BMP_temperature;BMP_pressure;BME280_temperature;BME280_humidity;BME280_pressure;Samples;Min_cycle;Max_cycle;Signal;HPM_P1;HPM_P2
2024/04/10 00:00:18;;;;;;;10.45;2.28;;;8.70;99.90;;;;;;7375401;19;20387;-60
2024/04/10 00:02:44;;;;;;;11.13;2.30;;;8.70;99.90;;;;;;7377873;19;20365;-59
2024/04/10 00:05:11;;;;;;;11.60;2.17;;;8.70;99.90;;;;;;7377399;19;20344;-68
2024/04/10 00:07:37;;;;;;;7.10;1.70;;;8.70;99.90;;;;;;7374359;19;20033;-60
2024/04/10 00:10:04;;;;;;;10.07;2.97;;;8.60;99.90;;;;;;7375387;19;20026;-60
2024/04/10 00:12:31;;;;;;;11.43;2.20;;;8.60;99.90;;;;;;7378238;19;20549;-67
2024/04/10 00:14:59;;;;;;;9.57;1.92;;;8.60;99.90;;;;;;7377674;19;20010;-68
2024/04/10 00:17:29;;;;;;;5.65;2.58;;;8.60;99.90;;;;;;7373958;19;20022;-68
2024/04/10 00:19:55;;;;;;;13.35;3.38;;;8.60;99.90;;;;;;7379399;19;20018;-68
2024/04/10 00:22:22;;;;;;;8.75;2.33;;;8.50;99.90;;;;;;7373966;19;20014;-68
2024/04/10 00:24:51;;;;;;;12.35;2.50;;;8.50;99.90;;;;;;7375046;19;20339;-68
2024/04/10 00:27:18;;;;;;;8.23;2.38;;;8.40;99.90;;;;;;7374800;19;20018;-68
2024/04/10 00:29:44;;;;;;;9.57;2.15;;;8.40;99.90;;;;;;7379808;19;20027;-68
2024/04/10 00:32:10;;;;;;;7.97;1.85;;;8.40;99.90;;;;;;7372440;19;20018;-68
2024/04/10 00:34:37;;;;;;;7.82;2.03;;;8.40;99.90;;;;;;7370765;19;20010;-68
2024/04/10 00:37:03;;;;;;;7.20;2.15;;;8.30;99.90;;;;;;7374489;19;20026;-67
2024/04/10 00:39:29;;;;;;;10.52;1.80;;;8.30;99.90;;;;;;7372506;19;20383;-58
2024/04/10 00:41:56;;;;;;;8.27;2.58;;;8.30;99.90;;;;;;7375123;19;20014;-58
2024/04/10 00:44:22;;;;;;;11.40;1.85;;;8.40;99.90;;;;;;7377368;19;20022;-58
2024/04/10 00:46:48;;;;;;;7.18;2.25;;;8.40;99.90;;;;;;7372274;19;20374;-60
2024/04/10 00:49:15;;;;;;;9.60;1.35;;;8.50;99.90;;;;;;7371987;19;20584;-68
2024/04/10 00:51:42;;;;;;;4.03;1.23;;;8.50;99.90;;;;;;7375141;19;20360;-66
2024/04/10 00:54:08;;;;;;;7.50;1.75;;;8.50;99.90;;;;;;7375489;19;20030;-66
2024/04/10 00:56:35;;;;;;;8.48;2.20;;;8.50;99.90;;;;;;7374379;19;20075;-61
2024/04/10 00:59:04;;;;;;;5.57;1.83;;;8.50;99.90;;;;;;7373508;19;20022;-59
2024/04/10 01:01:30;;;;;;;9.30;1.75;;;8.50;99.90;;;;;;7377500;19;20018;-68
2024/04/10 01:03:57;;;;;;;7.43;1.70;;;8.60;99.90;;;;;;7372305;19;20032;-67
2024/04/10 01:06:29;;;;;;;4.65;1.30;;;8.60;99.90;;;;;;7377003;19;20022;-68
2024/04/10 01:08:57;;;;;;;5.60;1.23;;;8.70;99.90;;;;;;7375083;19;20015;-60
2024/04/10 01:11:23;;;;;;;11.00;1.77;;;8.80;99.90;;;;;;7376694;19;20490;-60
2024/04/10 01:13:50;;;;;;;9.25;1.67;;;8.80;99.90;;;;;;7374257;19;20015;-68
2024/04/10 01:16:17;;;;;;;4.68;1.00;;;8.80;99.90;;;;;;7376287;19;20007;-60
2024/04/10 01:18:43;;;;;;;6.93;1.00;;;8.90;99.90;;;;;;7377072;19;20026;-59
2024/04/10 01:21:09;;;;;;;5.85;0.90;;;8.90;99.90;;;;;;7375810;19;20074;-59
2024/04/10 01:23:36;;;;;;;6.65;1.33;;;8.90;99.90;;;;;;7374393;19;20539;-67
2024/04/10 01:26:02;;;;;;;8.13;0.85;;;9.00;99.90;;;;;;7375643;19;20035;-59
2024/04/10 01:28:29;;;;;;;4.35;0.90;;;9.00;99.90;;;;;;7372373;19;20022;-59
2024/04/10 01:30:55;;;;;;;3.47;0.73;;;8.90;99.90;;;;;;7375879;19;20018;-68
2024/04/10 01:33:21;;;;;;;1.67;0.60;;;8.80;99.90;;;;;;7372524;19;20362;-69
2024/04/10 01:35:48;;;;;;;2.80;0.73;;;8.70;99.90;;;;;;7372546;19;20022;-69
2024/04/10 01:38:14;;;;;;;5.03;0.85;;;8.60;99.90;;;;;;7371098;19;20043;-68
2024/04/10 01:40:40;;;;;;;3.35;0.80;;;8.50;99.90;;;;;;7373823;19;20022;-68
2024/04/10 01:43:09;;;;;;;6.05;1.10;;;8.40;99.90;;;;;;7376010;19;20555;-68
2024/04/10 01:45:38;;;;;;;4.30;0.80;;;8.40;99.90;;;;;;7369963;19;20460;-68
2024/04/10 01:48:04;;;;;;;5.65;1.00;;;8.40;99.90;;;;;;7372930;19;20027;-69
2024/04/10 01:50:31;;;;;;;3.75;0.80;;;8.30;99.90;;;;;;7370469;19;20461;-66
2024/04/10 01:52:57;;;;;;;1.92;0.70;;;8.30;99.90;;;;;;7370300;19;20342;-59
2024/04/10 01:55:23;;;;;;;4.28;0.98;;;8.20;99.90;;;;;;7373709;19;20022;-59
2024/04/10 01:57:50;;;;;;;4.55;0.63;;;8.20;99.90;;;;;;7369049;19;20055;-59
2024/04/10 02:00:18;;;;;;;2.05;0.80;;;8.20;99.90;;;;;;7373334;19;20014;-68
2024/04/10 02:02:48;;;;;;;1.42;0.52;;;8.10;99.90;;;;;;7373190;19;20035;-68
2024/04/10 02:05:15;;;;;;;1.15;0.52;;;8.20;99.90;;;;;;7372766;19;20502;-68
2024/04/10 02:07:42;;;;;;;1.25;0.40;;;8.10;99.90;;;;;;7369496;19;20022;-68
2024/04/10 02:10:08;;;;;;;0.95;0.43;;;8.10;99.90;;;;;;7370115;19;20052;-68
2024/04/10 02:12:34;;;;;;;2.92;0.50;;;8.10;99.90;;;;;;7373763;19;20451;-68
2024/04/10 02:15:01;;;;;;;3.63;0.50;;;8.10;99.90;;;;;;7378297;19;20017;-67
2024/04/10 02:17:29;;;;;;;3.15;0.90;;;8.10;99.90;;;;;;7371215;19;20047;-67
2024/04/10 02:19:55;;;;;;;1.77;0.40;;;8.10;99.90;;;;;;7375284;19;20029;-59
2024/04/10 02:22:22;;;;;;;4.13;0.60;;;8.00;99.90;;;;;;7372454;19;20025;-59
2024/04/10 02:24:51;;;;;;;1.48;0.40;;;8.00;99.90;;;;;;7371197;19;20461;-68
2024/04/10 02:27:18;;;;;;;2.25;0.75;;;8.00;99.90;;;;;;7372708;19;20041;-68
2024/04/10 02:29:44;;;;;;;2.47;0.40;;;8.00;99.90;;;;;;7367081;19;20133;-60
2024/04/10 02:32:10;;;;;;;1.80;0.60;;;8.00;99.90;;;;;;7374217;19;20102;-59
2024/04/10 02:34:36;;;;;;;2.15;0.50;;;7.90;99.90;;;;;;7367838;19;20510;-59
2024/04/10 02:37:03;;;;;;;2.05;0.57;;;7.90;99.90;;;;;;7372138;19;20022;-59
2024/04/10 02:39:29;;;;;;;4.57;0.60;;;7.90;99.90;;;;;;7371794;19;20100;-59
2024/04/10 02:41:56;;;;;;;2.67;1.08;;;7.90;99.90;;;;;;7373146;19;20027;-68
2024/04/10 02:44:22;;;;;;;2.47;0.80;;;7.90;99.90;;;;;;7372764;19;20112;-60
2024/04/10 02:46:49;;;;;;;1.90;0.70;;;7.90;99.90;;;;;;7368956;19;20449;-59
2024/04/10 02:49:18;;;;;;;2.70;0.95;;;7.90;99.90;;;;;;7371160;19;20014;-59
2024/04/10 02:51:45;;;;;;;4.78;1.33;;;7.90;99.90;;;;;;7371518;19;20041;-59
2024/04/10 02:54:14;;;;;;;3.53;0.68;;;7.90;99.90;;;;;;7364651;19;20014;-59
2024/04/10 02:56:50;;;;;;;6.15;1.27;;;7.90;99.90;;;;;;7387364;19;20680;-68
2024/04/10 02:59:17;;;;;;;4.40;1.20;;;8.00;99.90;;;;;;7346101;19;20020;-70
2024/04/10 03:01:45;;;;;;;6.45;1.40;;;8.00;99.90;;;;;;7375089;19;20036;-70
2024/04/10 03:04:11;;;;;;;5.07;1.35;;;8.00;99.90;;;;;;7384788;19;20019;-70
2024/04/10 03:06:38;;;;;;;6.32;1.65;;;8.00;99.90;;;;;;7381995;19;20045;-61
2024/04/10 03:09:04;;;;;;;8.55;1.67;;;7.90;99.90;;;;;;7376454;19;20018;-61
2024/04/10 03:11:30;;;;;;;7.80;2.20;;;7.90;99.90;;;;;;7380527;19;20026;-61
2024/04/10 03:13:56;;;;;;;8.73;1.80;;;7.90;99.90;;;;;;7378545;19;20014;-60
2024/04/10 03:16:23;;;;;;;7.78;2.10;;;7.90;99.90;;;;;;7377341;19;20031;-60
2024/04/10 03:18:50;;;;;;;6.38;1.90;;;7.90;99.90;;;;;;7377495;19;20014;-61
2024/04/10 03:21:16;;;;;;;10.15;2.78;;;7.90;99.90;;;;;;7377827;19;20155;-70
2024/04/10 03:23:42;;;;;;;6.53;2.08;;;7.90;99.90;;;;;;7383720;19;20018;-70
2024/04/10 03:26:09;;;;;;;10.25;3.05;;;7.90;99.90;;;;;;7382963;19;20023;-61
2024/04/10 03:28:40;;;;;;;10.32;2.53;;;7.90;99.90;;;;;;7378729;19;20021;-69
2024/04/10 03:31:07;;;;;;;6.03;2.42;;;7.90;99.90;;;;;;7382256;19;20429;-61
2024/04/10 03:33:34;;;;;;;6.40;2.72;;;7.90;99.90;;;;;;7382225;19;20029;-61
2024/04/10 03:36:00;;;;;;;9.57;2.80;;;7.90;99.90;;;;;;7379637;19;20378;-60
2024/04/10 03:38:26;;;;;;;13.02;3.47;;;7.90;99.90;;;;;;7375238;19;20063;-69
2024/04/10 03:40:52;;;;;;;8.40;3.25;;;7.90;99.90;;;;;;7379776;19;20358;-69
2024/04/10 03:43:18;;;;;;;11.48;2.97;;;8.00;99.90;;;;;;7381629;19;20026;-69
2024/04/10 03:45:49;;;;;;;7.68;2.92;;;8.00;99.90;;;;;;7377176;19;20627;-69
2024/04/10 03:48:15;;;;;;;11.07;3.22;;;8.10;99.90;;;;;;7382202;19;20018;-69
2024/04/10 03:50:41;;;;;;;11.98;3.30;;;8.10;99.90;;;;;;7379849;19;20014;-69
2024/04/10 03:53:11;;;;;;;11.88;2.92;;;8.20;99.90;;;;;;7380855;19;20018;-70
2024/04/10 03:55:39;;;;;;;9.13;3.35;;;8.20;99.90;;;;;;7381156;19;20014;-69
2024/04/10 03:58:08;;;;;;;8.82;3.03;;;8.20;99.90;;;;;;7378370;19;20018;-70
2024/04/10 04:00:34;;;;;;;12.75;3.30;;;8.10;99.90;;;;;;7381884;19;20018;-60
2024/04/10 04:03:00;;;;;;;11.10;3.25;;;8.00;99.90;;;;;;7382145;19;20054;-60
2024/04/10 04:05:27;;;;;;;8.98;2.97;;;8.00;99.90;;;;;;7378530;19;20587;-60
2024/04/10 04:07:53;;;;;;;11.18;2.90;;;7.90;99.90;;;;;;7377454;19;20022;-60
2024/04/10 04:10:19;;;;;;;11.98;3.28;;;7.80;99.90;;;;;;7380559;19;20026;-60
2024/04/10 04:12:45;;;;;;;15.00;3.60;;;7.80;99.90;;;;;;7382716;19;20015;-62
2024/04/10 04:15:12;;;;;;;15.82;4.30;;;7.70;99.90;;;;;;7379378;19;20586;-60
2024/04/10 04:17:38;;;;;;;10.38;3.63;;;7.70;99.90;;;;;;7383093;19;20018;-60
2024/04/10 04:20:10;;;;;;;15.45;3.95;;;7.70;99.90;;;;;;7378479;19;20078;-60
2024/04/10 04:22:37;;;;;;;13.05;3.25;;;7.70;99.90;;;;;;7376590;19;20011;-60
2024/04/10 04:25:04;;;;;;;13.90;4.00;;;7.60;99.90;;;;;;7378687;19;20026;-59
2024/04/10 04:27:32;;;;;;;12.52;3.35;;;7.60;99.90;;;;;;7380375;19;20022;-60
2024/04/10 04:30:02;;;;;;;18.42;4.03;;;7.60;99.90;;;;;;7381005;19;20074;-61
2024/04/10 04:32:28;;;;;;;17.27;4.47;;;7.50;99.90;;;;;;7375636;19;20035;-61
2024/04/10 04:34:54;;;;;;;16.75;4.00;;;7.40;99.90;;;;;;7379711;19;20433;-61
2024/04/10 04:37:21;;;;;;;12.73;3.75;;;7.40;99.90;;;;;;7375842;19;20024;-62
2024/04/10 04:39:47;;;;;;;13.48;3.85;;;7.40;99.90;;;;;;7380490;19;20010;-61
2024/04/10 04:42:13;;;;;;;11.48;3.70;;;7.30;99.90;;;;;;7377873;19;20424;-61
2024/04/10 04:44:40;;;;;;;16.63;4.00;;;7.30;99.90;;;;;;7381619;19;20018;-61
2024/04/10 04:47:07;;;;;;;14.93;4.90;;;7.40;99.90;;;;;;7379627;19;20014;-61
2024/04/10 04:49:33;;;;;;;16.42;4.15;;;7.40;99.90;;;;;;7379339;19;20103;-61
2024/04/10 04:51:59;;;;;;;14.60;3.45;;;7.40;99.90;;;;;;7379110;19;20497;-61
2024/04/10 04:54:26;;;;;;;17.13;4.80;;;7.50;99.90;;;;;;7377454;19;20018;-61
2024/04/10 04:56:52;;;;;;;18.45;5.30;;;7.50;99.90;;;;;;7375519;19;20366;-60
2024/04/10 04:59:18;;;;;;;15.60;4.45;;;7.50;99.90;;;;;;7372563;19;20049;-61
2024/04/10 05:01:48;;;;;;;20.52;4.80;;;7.50;99.90;;;;;;7373445;19;20022;-61
2024/04/10 05:07:00;;;;;;;18.63;4.80;;;7.40;99.90;;;;;;7375763;19;20027;-69
2024/04/10 05:09:26;;;;;;;17.95;4.55;;;7.40;99.90;;;;;;7375660;19;20440;-69
2024/04/10 05:11:53;;;;;;;15.57;4.90;;;7.40;99.90;;;;;;7378773;19;20015;-70
2024/04/10 05:14:20;;;;;;;18.70;4.50;;;7.40;99.90;;;;;;7374821;19;20353;-70
2024/04/10 05:16:46;;;;;;;14.88;4.55;;;7.40;99.90;;;;;;7378373;19;20425;-71
2024/04/10 05:19:12;;;;;;;14.43;4.55;;;7.40;99.90;;;;;;7376522;19;20019;-70
2024/04/10 05:21:39;;;;;;;17.70;4.30;;;7.30;99.90;;;;;;7375568;19;20094;-70
2024/04/10 05:24:06;;;;;;;14.82;3.70;;;7.30;99.90;;;;;;7377509;19;20090;-71
2024/04/10 05:26:32;;;;;;;15.77;4.68;;;7.40;99.90;;;;;;7377971;19;20082;-70
2024/04/10 05:28:58;;;;;;;23.95;5.00;;;7.40;99.90;;;;;;7375807;19;20026;-71
2024/04/10 05:31:24;;;;;;;14.90;4.90;;;7.50;99.90;;;;;;7372259;19;20034;-71
2024/04/10 05:33:52;;;;;;;17.20;4.88;;;7.50;99.90;;;;;;7377518;19;20026;-70
2024/04/10 05:36:18;;;;;;;14.05;4.57;;;7.50;99.90;;;;;;7373982;19;21378;-71
2024/04/10 05:38:45;;;;;;;14.13;4.40;;;7.60;99.90;;;;;;7375268;19;20030;-72
2024/04/10 05:41:11;;;;;;;19.48;5.13;;;7.60;99.90;;;;;;7375701;19;20116;-71
2024/04/10 05:43:37;;;;;;;19.75;5.28;;;7.60;99.90;;;;;;7376575;19;20484;-71
2024/04/10 05:46:04;;;;;;;18.92;5.07;;;7.70;99.90;;;;;;7378252;19;20016;-71
2024/04/10 05:48:30;;;;;;;18.70;5.07;;;7.80;99.90;;;;;;7378865;19;20015;-71
2024/04/10 05:51:00;;;;;;;16.67;4.50;;;7.80;99.90;;;;;;7378359;19;20018;-71
2024/04/10 05:53:27;;;;;;;16.17;4.20;;;7.90;99.90;;;;;;7377745;19;20034;-71
2024/04/10 05:55:53;;;;;;;17.52;4.22;;;8.10;99.90;;;;;;7376572;19;20018;-69
2024/04/10 05:58:19;;;;;;;14.60;4.13;;;8.20;99.90;;;;;;7374405;19;20855;-69
2024/04/10 06:00:46;;;;;;;14.43;4.20;;;8.20;99.90;;;;;;7375618;19;20042;-69
2024/04/10 06:03:12;;;;;;;16.42;4.70;;;8.40;99.90;;;;;;7375192;19;20423;-69
2024/04/10 06:05:39;;;;;;;17.50;4.90;;;8.40;99.90;;;;;;7376407;19;20548;-60
2024/04/10 06:08:06;;;;;;;14.15;4.10;;;8.60;99.90;;;;;;7376329;19;21570;-60
2024/04/10 06:10:32;;;;;;;19.50;4.95;;;8.70;99.90;;;;;;7376688;19;20019;-60
2024/04/10 06:12:58;;;;;;;11.63;3.95;;;8.90;99.90;;;;;;7376580;19;20043;-60
2024/04/10 06:15:24;;;;;;;13.88;4.45;;;9.10;99.90;;;;;;7376470;19;20035;-69
2024/04/10 06:17:50;;;;;;;16.00;4.55;;;9.20;99.90;;;;;;7376944;19;20679;-60
2024/04/10 06:20:17;;;;;;;14.50;4.43;;;9.30;99.90;;;;;;7378104;19;20363;-60
2024/04/10 06:22:44;;;;;;;18.83;5.13;;;9.60;99.90;;;;;;7376808;19;20503;-60
2024/04/10 06:25:10;;;;;;;20.48;4.53;;;9.70;99.90;;;;;;7375731;19;20549;-61
2024/04/10 06:27:36;;;;;;;14.25;4.60;;;9.70;99.90;;;;;;7377173;19;20053;-61
2024/04/10 06:30:03;;;;;;;13.15;4.03;;;9.90;99.90;;;;;;7373498;19;20015;-61
2024/04/10 06:32:31;;;;;;;14.82;4.82;;;10.00;99.90;;;;;;7377820;19;20970;-62
2024/04/10 06:34:57;;;;;;;16.02;4.45;;;10.20;99.90;;;;;;7374270;19;21163;-62
2024/04/10 06:37:23;;;;;;;15.73;4.45;;;10.30;99.90;;;;;;7378465;19;20090;-61
2024/04/10 06:39:52;;;;;;;15.60;4.93;;;10.40;99.90;;;;;;7376778;19;20113;-61
2024/04/10 06:42:18;;;;;;;16.38;4.82;;;10.60;99.90;;;;;;7377479;19;20626;-70
2024/04/10 06:44:45;;;;;;;13.80;4.65;;;10.70;99.90;;;;;;7375161;19;20011;-71
2024/04/10 06:47:11;;;;;;;15.65;4.80;;;10.80;99.90;;;;;;7376295;19;20018;-71
2024/04/10 06:49:37;;;;;;;14.68;5.00;;;10.90;99.90;;;;;;7376175;19;20038;-71
2024/04/10 06:52:03;;;;;;;17.55;5.05;;;11.00;99.90;;;;;;7374688;19;20014;-61
2024/04/10 06:54:29;;;;;;;20.83;5.40;;;11.20;99.90;;;;;;7374793;19;20485;-62
2024/04/10 06:56:57;;;;;;;18.05;4.75;;;11.30;99.90;;;;;;7373222;19;20379;-72
2024/04/10 06:59:23;;;;;;;14.98;4.65;;;11.40;99.90;;;;;;7373253;19;20497;-71
2024/04/10 07:01:52;;;;;;;16.13;4.53;;;11.40;99.90;;;;;;7374838;19;20042;-69
2024/04/10 07:04:18;;;;;;;14.38;5.32;;;11.70;99.90;;;;;;7374393;19;20026;-71
2024/04/10 07:06:44;;;;;;;13.70;5.00;;;11.80;97.60;;;;;;7373363;19;20015;-71
2024/04/10 07:09:11;;;;;;;17.23;5.15;;;12.00;99.90;;;;;;7375322;19;20590;-71
2024/04/10 07:11:37;;;;;;;11.98;4.53;;;12.30;99.90;;;;;;7376281;19;20019;-71
2024/04/10 07:14:03;;;;;;;14.45;4.57;;;12.70;99.90;;;;;;7376485;19;20904;-69
2024/04/10 07:16:30;;;;;;;13.98;4.55;;;12.50;47.60;;;;;;7375398;19;20011;-69
2024/04/10 07:18:57;;;;;;;15.73;4.63;;;12.70;1.00;;;;;;7373216;19;20093;-60
2024/04/10 07:21:23;;;;;;;14.95;5.28;;;12.70;1.00;;;;;;7376358;19;20038;-68
2024/04/10 07:23:50;;;;;;;17.85;5.25;;;13.00;1.00;;;;;;7376846;19;20089;-69
2024/04/10 07:26:20;;;;;;;12.20;4.65;;;13.00;1.00;;;;;;7379203;19;20006;-69
2024/04/10 07:28:52;;;;;;;16.42;4.85;;;13.40;1.00;;;;;;7376174;19;20482;-69
2024/04/10 07:31:20;;;;;;;18.17;4.18;;;13.60;1.00;;;;;;7380380;19;20018;-68
2024/04/10 07:33:48;;;;;;;16.60;4.57;;;13.50;1.00;;;;;;7375311;19;20046;-69
2024/04/10 07:36:18;;;;;;;15.75;4.68;;;13.70;99.90;;;;;;7371920;19;20379;-69
2024/04/10 07:38:45;;;;;;;14.90;4.57;;;14.10;99.90;;;;;;7381369;19;20022;-69
2024/04/10 07:41:13;;;;;;;13.02;4.55;;;14.10;1.00;;;;;;7378926;19;20037;-68
2024/04/10 07:43:40;;;;;;;11.70;4.45;;;13.70;1.00;;;;;;7387059;19;20011;-69
2024/04/10 07:46:10;;;;;;;13.65;4.80;;;14.00;99.90;;;;;;7386742;19;20344;-68
2024/04/10 07:48:37;;;;;;;13.07;4.32;;;14.30;99.90;;;;;;7388819;19;20081;-67
2024/04/10 07:51:04;;;;;;;17.83;5.32;;;14.70;99.90;;;;;;7389880;19;20366;-67
2024/04/10 07:53:34;;;;;;;14.75;4.20;;;14.60;1.00;;;;;;7390892;19;20018;-67
2024/04/10 07:56:04;;;;;;;13.93;4.20;;;14.20;99.90;;;;;;7389496;19;20015;-67
2024/04/10 07:58:31;;;;;;;13.60;5.20;;;13.80;20.90;;;;;;7389302;19;20040;-69
2024/04/10 08:00:58;;;;;;;13.23;5.00;;;13.30;1.00;;;;;;7389316;19;20018;-67
2024/04/10 08:03:26;;;;;;;14.05;4.82;;;13.10;99.90;;;;;;7392819;19;20022;-68
2024/04/10 08:05:55;;;;;;;13.30;5.15;;;13.40;99.90;;;;;;7390198;19;20014;-67
2024/04/10 08:08:22;;;;;;;16.20;5.40;;;13.10;1.00;;;;;;7392575;19;20021;-67
2024/04/10 08:11:03;;;;;;;15.43;4.55;;;13.00;1.00;;;;;;7393253;19;20015;-67
2024/04/10 08:13:38;;;;;;;16.27;5.22;;;12.80;1.00;;;;;;7392795;19;20018;-67
2024/04/10 08:16:05;;;;;;;16.35;5.40;;;12.70;51.80;;;;;;7391716;19;20101;-68
2024/04/10 08:18:38;;;;;;;17.63;5.80;;;12.30;99.90;;;;;;7389546;19;20029;-68
2024/04/10 08:21:07;;;;;;;13.18;4.88;;;12.30;99.90;;;;;;7392207;19;20014;-67
2024/04/10 08:23:34;;;;;;;15.63;4.82;;;12.70;99.90;;;;;;7392094;19;20014;-67
2024/04/10 08:26:17;;;;;;;16.63;5.20;;;12.70;99.90;;;;;;7394561;19;20031;-68
2024/04/10 08:28:49;;;;;;;14.20;4.25;;;12.70;54.40;;;;;;7391914;19;20607;-68
2024/04/10 08:31:17;;;;;;;14.45;4.90;;;12.50;40.30;;;;;;7392775;19;20020;-68
2024/04/10 08:33:45;;;;;;;17.42;5.35;;;12.50;99.90;;;;;;7388220;19;20082;-68
2024/04/10 08:36:16;;;;;;;17.95;5.07;;;13.10;99.90;;;;;;7390390;19;20006;-68
2024/04/10 08:38:43;;;;;;;17.43;5.03;;;13.90;1.00;;;;;;7388362;19;20022;-67
2024/04/10 08:41:12;;;;;;;13.90;4.63;;;14.70;1.00;;;;;;7390716;19;20018;-69
2024/04/10 08:43:42;;;;;;;15.23;5.25;;;15.10;99.90;;;;;;7388153;19;20018;-68
2024/04/10 08:46:09;;;;;;;15.93;4.38;;;15.50;99.90;;;;;;7385616;19;20029;-67
2024/04/10 08:48:37;;;;;;;14.77;5.07;;;15.10;19.50;;;;;;7387772;19;20058;-67
2024/04/10 08:51:08;;;;;;;12.23;4.45;;;15.00;99.90;;;;;;7379122;19;20011;-61
2024/04/10 08:53:38;;;;;;;9.95;4.18;;;14.70;1.00;;;;;;7379718;19;20018;-67
2024/04/10 08:56:04;;;;;;;10.77;4.25;;;14.50;99.90;;;;;;7390968;19;20469;-67
2024/04/10 08:58:31;;;;;;;12.50;4.05;;;14.50;99.90;;;;;;7387010;19;20031;-68
2024/04/10 09:00:57;;;;;;;13.88;4.43;;;14.70;99.90;;;;;;7391185;19;20370;-69
2024/04/10 09:03:23;;;;;;;11.38;3.90;;;15.40;99.90;;;;;;7389610;19;20018;-69
2024/04/10 09:05:49;;;;;;;9.43;3.85;;;15.80;8.10;;;;;;7389467;19;21470;-69
2024/04/10 09:08:15;;;;;;;7.90;3.03;;;16.20;15.20;;;;;;7389818;19;20018;-67
2024/04/10 09:10:42;;;;;;;7.78;2.40;;;16.20;1.00;;;;;;7380414;19;20030;-62
2024/04/10 09:13:09;;;;;;;8.30;2.10;;;16.70;99.90;;;;;;7376079;19;20082;-62
2024/04/10 09:15:39;;;;;;;10.52;3.10;;;17.40;1.00;;;;;;7374619;19;20523;-62
2024/04/10 09:18:06;;;;;;;10.48;3.15;;;16.80;1.00;;;;;;7375398;19;20029;-62
2024/04/10 09:20:35;;;;;;;7.82;2.75;;;16.70;99.90;;;;;;7370948;19;20015;-62
2024/04/10 09:23:05;;;;;;;8.40;2.47;;;16.50;1.00;;;;;;7375948;19;20456;-62
2024/04/10 09:25:32;;;;;;;10.65;3.13;;;16.50;99.90;;;;;;7373437;19;20566;-64
2024/04/10 09:28:04;;;;;;;10.77;2.72;;;16.40;1.00;;;;;;7374616;19;20031;-62
2024/04/10 09:30:34;;;;;;;10.45;3.33;;;16.80;1.00;;;;;;7376690;19;20738;-62
2024/04/10 09:33:01;;;;;;;11.90;3.20;;;17.50;1.00;;;;;;7377109;19;20018;-62
2024/04/10 09:35:28;;;;;;;9.65;3.20;;;17.10;1.00;;;;;;7372736;19;20058;-61
2024/04/10 09:37:59;;;;;;;13.07;3.70;;;16.00;99.90;;;;;;7370661;19;20019;-62
2024/04/10 09:40:31;;;;;;;10.95;3.80;;;15.10;1.00;;;;;;7373103;19;20014;-62
2024/04/10 09:43:05;;;;;;;11.07;3.67;;;15.80;1.00;;;;;;7370031;19;20026;-62
2024/04/10 09:45:34;;;;;;;13.68;3.72;;;16.30;1.00;;;;;;7372788;19;20470;-63
2024/04/10 09:48:08;;;;;;;9.98;3.35;;;16.50;1.00;;;;;;7373744;19;20025;-62
2024/04/10 09:50:37;;;;;;;10.48;2.95;;;17.10;99.90;;;;;;7370838;19;20089;-62
2024/04/10 09:53:07;;;;;;;8.73;2.85;;;18.10;99.90;;;;;;7373761;19;20014;-62
2024/04/10 09:55:37;;;;;;;12.77;3.73;;;18.40;99.90;;;;;;7368726;19;20085;-61
2024/04/10 09:58:08;;;;;;;14.80;3.47;;;19.10;99.90;;;;;;7371987;19;20483;-68
2024/04/10 10:00:35;;;;;;;11.05;3.30;;;18.50;99.90;;;;;;7379050;19;20045;-68
2024/04/10 10:03:06;;;;;;;11.57;3.70;;;17.60;99.90;;;;;;7374496;19;20022;-67
2024/04/10 10:05:33;;;;;;;10.05;3.28;;;17.10;99.90;;;;;;7375306;19;20745;-68
2024/04/10 10:08:04;;;;;;;10.07;3.42;;;16.20;99.90;;;;;;7376249;19;20391;-69
2024/04/10 10:10:30;;;;;;;11.43;3.10;;;15.60;99.90;;;;;;7379840;19;20493;-68
2024/04/10 10:13:08;;;;;;;13.70;3.75;;;14.80;1.00;;;;;;7379937;19;20086;-68
2024/04/10 10:15:35;;;;;;;16.30;4.07;;;14.60;1.00;;;;;;7374825;19;20378;-68
2024/04/10 10:18:01;;;;;;;13.00;3.65;;;14.40;1.00;;;;;;7375146;19;20014;-67
2024/04/10 10:20:30;;;;;;;12.25;2.85;;;14.50;1.00;;;;;;7378685;19;20022;-68
2024/04/10 10:23:01;;;;;;;8.52;3.17;;;14.70;1.00;;;;;;7376304;19;20097;-69
2024/04/10 10:25:27;;;;;;;10.30;3.75;;;14.70;1.00;;;;;;7379604;19;20026;-69
2024/04/10 10:28:07;;;;;;;8.90;3.25;;;14.70;1.00;;;;;;7380232;19;20050;-69
2024/04/10 10:30:35;;;;;;;12.18;3.08;;;15.20;1.00;;;;;;7378613;19;20029;-68
2024/04/10 10:33:05;;;;;;;10.43;3.33;;;15.80;99.90;;;;;;7382341;19;20127;-69
2024/04/10 10:35:32;;;;;;;12.48;3.70;;;16.50;99.90;;;;;;7375958;19;20102;-70
2024/04/10 10:38:04;;;;;;;12.50;4.50;;;15.90;99.90;;;;;;7377969;19;20052;-70
2024/04/10 10:40:31;;;;;;;10.07;3.08;;;15.80;1.00;;;;;;7374297;19;20051;-70
2024/04/10 10:43:06;;;;;;;9.45;3.55;;;16.00;99.90;;;;;;7380634;19;20347;-69
2024/04/10 10:45:35;;;;;;;9.48;2.72;;;15.80;99.90;;;;;;7378529;19;20032;-69
2024/04/10 10:48:03;;;;;;;11.20;2.95;;;15.60;99.90;;;;;;7374122;19;20098;-69
2024/04/10 10:50:30;;;;;;;9.05;3.10;;;15.60;99.90;;;;;;7378383;19;20039;-69
2024/04/10 10:52:57;;;;;;;7.63;2.88;;;15.10;99.90;;;;;;7378116;19;20011;-70
2024/04/10 10:55:24;;;;;;;10.40;2.88;;;14.70;99.90;;;;;;7376735;19;20481;-69
2024/04/10 10:58:01;;;;;;;7.93;2.28;;;14.80;99.90;;;;;;7372169;19;20019;-70
2024/04/10 11:00:31;;;;;;;7.40;2.42;;;14.70;99.90;;;;;;7376817;19;20043;-70
2024/04/10 11:03:08;;;;;;;9.10;2.58;;;14.70;99.90;;;;;;7375971;19;20378;-68
2024/04/10 11:05:34;;;;;;;10.48;3.00;;;14.60;99.90;;;;;;7374922;19;20007;-68
2024/04/10 11:08:01;;;;;;;11.07;4.05;;;14.70;99.90;;;;;;7371120;19;20014;-68
2024/04/10 11:10:28;;;;;;;10.77;3.53;;;14.90;1.00;;;;;;7374338;19;20041;-66
2024/04/10 11:13:04;;;;;;;50.15;38.85;;;15.40;99.90;;;;;;7369624;19;20025;-65
2024/04/10 11:15:43;;;;;;;19.15;11.23;;;16.40;99.90;;;;;;7373999;19;20355;-65
2024/04/10 11:18:13;;;;;;;13.65;8.93;;;16.70;99.90;;;;;;7367800;19;20347;-63
2024/04/10 11:20:39;;;;;;;19.52;11.20;;;17.80;99.90;;;;;;7381550;19;20753;-64
2024/04/10 11:23:05;;;;;;;12.32;4.75;;;17.60;99.90;;;;;;7380936;19;21439;-66
2024/04/10 11:25:33;;;;;;;14.27;4.68;;;17.80;99.90;;;;;;7376823;19;20022;-62
2024/04/10 11:28:00;;;;;;;15.55;4.80;;;16.90;99.90;;;;;;7376415;19;20357;-62
2024/04/10 11:30:27;;;;;;;12.43;6.07;;;17.60;99.90;;;;;;7376342;19;20526;-63
2024/04/10 11:32:55;;;;;;;10.80;3.55;;;18.30;99.90;;;;;;7381761;19;20488;-65
2024/04/10 11:35:22;;;;;;;13.77;3.47;;;19.10;99.90;;;;;;7380262;19;20023;-64
2024/04/10 11:37:53;;;;;;;10.13;4.80;;;19.00;99.90;;;;;;7377372;19;20071;-64
2024/04/10 11:40:19;;;;;;;10.27;3.00;;;18.90;99.90;;;;;;7382219;19;20050;-64
2024/04/10 11:42:46;;;;;;;9.15;3.25;;;18.80;99.90;;;;;;7376845;19;20098;-64
2024/04/10 11:45:12;;;;;;;8.27;2.85;;;18.20;99.90;;;;;;7381316;19;20018;-62
2024/04/10 11:47:43;;;;;;;10.93;3.22;;;18.60;99.90;;;;;;7370379;19;20663;-62
2024/04/10 11:50:13;;;;;;;9.02;3.05;;;19.70;99.90;;;;;;7377005;19;20018;-62
2024/04/10 11:52:40;;;;;;;9.85;3.15;;;20.40;99.90;;;;;;7379418;19;20031;-61
2024/04/10 11:55:08;;;;;;;9.35;3.08;;;19.90;99.90;;;;;;7379387;19;20010;-61
2024/04/10 11:57:36;;;;;;;9.98;3.47;;;19.60;99.90;;;;;;7371696;19;20035;-62
2024/04/10 12:00:07;;;;;;;10.05;2.83;;;19.40;99.90;;;;;;7382613;19;20014;-62
2024/04/10 12:02:42;;;;;;;9.88;3.30;;;19.40;99.90;;;;;;7377648;19;20015;-60
2024/04/10 12:05:08;;;;;;;15.85;8.88;;;18.20;99.90;;;;;;7382394;19;20015;-61
2024/04/10 12:07:35;;;;;;;21.42;11.00;;;18.00;99.90;;;;;;7377014;19;20018;-61
2024/04/10 12:10:04;;;;;;;14.52;5.22;;;17.40;99.90;;;;;;7380310;19;20031;-61
2024/04/10 12:12:30;;;;;;;13.38;6.05;;;17.00;99.90;;;;;;7378846;19;20036;-60
2024/04/10 12:14:57;;;;;;;12.50;4.30;;;16.60;99.90;;;;;;7380773;19;20023;-58
2024/04/10 12:17:23;;;;;;;9.10;3.38;;;17.20;99.90;;;;;;7375623;19;20022;-57
2024/04/10 12:19:50;;;;;;;12.10;4.10;;;18.60;99.90;;;;;;7375671;19;20330;-58
2024/04/10 12:22:16;;;;;;;10.27;3.55;;;18.90;99.90;;;;;;7373249;19;20461;-57
2024/04/10 12:24:42;;;;;;;12.48;3.65;;;19.10;99.90;;;;;;7381323;19;20021;-57
2024/04/10 12:27:08;;;;;;;11.20;3.80;;;19.60;99.90;;;;;;7379887;19;20513;-58
2024/04/10 12:29:35;;;;;;;9.75;3.10;;;20.40;99.90;;;;;;7378327;19;20018;-61
2024/04/10 12:32:02;;;;;;;9.82;3.20;;;19.00;99.90;;;;;;7376708;19;20010;-61
2024/04/10 12:34:28;;;;;;;10.35;2.80;;;18.50;99.90;;;;;;7377040;19;20031;-60
2024/04/10 12:39:39;;;;;;;16.17;9.07;;;18.20;99.90;;;;;;7377574;19;20017;-61
2024/04/10 12:42:06;;;;;;;8.27;3.80;;;18.30;99.90;;;;;;7378164;19;20093;-59
2024/04/10 12:44:35;;;;;;;9.82;3.00;;;18.70;99.90;;;;;;7378863;19;20605;-65
2024/04/10 12:47:01;;;;;;;8.68;3.35;;;18.80;99.90;;;;;;7380271;19;20380;-61
2024/04/10 12:49:38;;;;;;;10.35;3.22;;;19.30;99.90;;;;;;7377952;19;20018;-62
2024/04/10 12:52:04;;;;;;;10.55;2.67;;;20.00;99.90;;;;;;7379654;19;20094;-64